Choctaw Nolf Airport


Codes: KNFJ/
Name: Choctaw Nolf Airport
City: Milton
Country: United States
Elevation: 102 ft.

Photos at Choctaw Nolf Airport


   Photos courtesy of SpottingLog. You can add your own sightings and photos by signing up for a free trial today.



No photos found.

Weather at Choctaw Nolf Airport


Time (UTC)DescriptionTempratureWindCloud coverageVisibilityPressureHumidity
17-Jun-2024 06:00Light Rain25°C4 mph, SE98%10000m1017hPa87%
17-Jun-2024 09:00Light Rain25°C7 mph, E83%10000m1016hPa91%
17-Jun-2024 12:00Broken Clouds25°C7 mph, E84%10000m1016hPa87%
17-Jun-2024 15:00Overcast Clouds29°C9 mph, E100%10000m1017hPa65%
17-Jun-2024 18:00Light Rain29°C11 mph, SE100%10000m1017hPa65%
17-Jun-2024 21:00Light Rain28°C9 mph, SE100%10000m1016hPa72%
18-Jun-2024 00:00Overcast Clouds28°C9 mph, SE100%10000m1015hPa71%
18-Jun-2024 03:00Light Rain26°C4 mph, E100%10000m1016hPa76%
18-Jun-2024 06:00Light Rain26°C7 mph, SE100%10000m1016hPa76%
18-Jun-2024 09:00Light Rain25°C11 mph, E100%10000m1015hPa78%
18-Jun-2024 12:00Overcast Clouds24°C11 mph, E100%10000m1016hPa74%
18-Jun-2024 15:00Overcast Clouds29°C16 mph, E94%10000m1016hPa59%
18-Jun-2024 18:00Overcast Clouds31°C16 mph, SE96%10000m1015hPa49%
18-Jun-2024 21:00Overcast Clouds30°C13 mph, SE100%10000m1014hPa59%
19-Jun-2024 00:00Light Rain28°C9 mph, SE100%10000m1015hPa74%
19-Jun-2024 03:00Light Rain26°C7 mph, E100%10000m1016hPa76%
19-Jun-2024 06:00Overcast Clouds26°C9 mph, E87%10000m1015hPa79%
19-Jun-2024 09:00Light Rain25°C11 mph, E37%10000m1016hPa73%
19-Jun-2024 12:00Broken Clouds25°C13 mph, E68%10000m1017hPa73%
19-Jun-2024 15:00Overcast Clouds28°C16 mph, E100%10000m1018hPa64%
19-Jun-2024 18:00Overcast Clouds32°C13 mph, SE100%10000m1017hPa47%
19-Jun-2024 21:00Overcast Clouds31°C13 mph, SE100%10000m1016hPa52%
20-Jun-2024 00:00Overcast Clouds28°C9 mph, E100%10000m1016hPa65%
20-Jun-2024 03:00Overcast Clouds27°C11 mph, E98%10000m1017hPa63%
20-Jun-2024 06:00Overcast Clouds27°C11 mph, E97%10000m1018hPa62%
20-Jun-2024 09:00Broken Clouds25°C11 mph, E73%10000m1018hPa64%
20-Jun-2024 12:00Overcast Clouds23°C11 mph, E86%10000m1020hPa71%
20-Jun-2024 15:00Overcast Clouds28°C13 mph, E97%10000m1020hPa58%
20-Jun-2024 18:00Broken Clouds33°C11 mph, E66%10000m1019hPa39%
20-Jun-2024 21:00Few Clouds33°C7 mph, E11%10000m1017hPa38%
21-Jun-2024 00:00Broken Clouds30°C4 mph, SE54%10000m1018hPa54%
21-Jun-2024 03:00Scattered Clouds26°C2 mph, E28%10000m1018hPa67%
21-Jun-2024 06:00Few Clouds25°C7 mph, NE18%10000m1018hPa64%
21-Jun-2024 09:00Clear Sky24°C7 mph, NE8%10000m1018hPa67%
21-Jun-2024 12:00Few Clouds25°C9 mph, NE19%10000m1019hPa68%
21-Jun-2024 15:00Clear Sky30°C7 mph, NE2%10000m1019hPa51%
21-Jun-2024 18:00Clear Sky34°C4 mph, S1%10000m1017hPa42%
21-Jun-2024 21:00Broken Clouds28°C9 mph, S83%10000m1016hPa63%
22-Jun-2024 00:00Overcast Clouds29°C7 mph, SE89%10000m1017hPa65%
22-Jun-2024 03:00Few Clouds27°C4 mph, S18%10000m1018hPa74%